Time;durP1;ratioP1;P1;durP2;ratioP2;P2;SDS_P1;SDS_P2;PMS_P1;PMS_P2;Temp;Humidity;BMP_temperature;BMP_pressure;BME280_temperature;BME280_humidity;BME280_pressure;Samples;Min_cycle;Max_cycle;Signal;HPM_P1;HPM_P2
2022/08/02 00:00:19;;;;;;;3.42;1.90;;;13.20;99.90;;;;;;5040494;28;20049;-72
2022/08/02 00:02:46;;;;;;;2.53;1.50;;;13.20;99.90;;;;;;5038793;28;20077;-72
2022/08/02 00:05:12;;;;;;;5.88;2.00;;;13.20;99.90;;;;;;5042488;28;20068;-73
2022/08/02 00:07:38;;;;;;;3.28;2.22;;;13.20;99.90;;;;;;5039852;28;20124;-72
2022/08/02 00:10:06;;;;;;;5.10;2.20;;;13.20;99.90;;;;;;5039128;28;20049;-73
2022/08/02 00:12:32;;;;;;;4.45;2.42;;;13.20;99.90;;;;;;5040406;28;20095;-71
2022/08/02 00:14:58;;;;;;;5.18;2.70;;;13.30;99.90;;;;;;5040243;28;20045;-72
2022/08/02 00:17:23;;;;;;;6.15;2.53;;;13.30;99.90;;;;;;5043562;28;20396;-72
2022/08/02 00:19:49;;;;;;;4.35;2.22;;;13.30;99.90;;;;;;5043016;28;20033;-72
2022/08/02 00:22:15;;;;;;;5.07;2.50;;;13.40;99.90;;;;;;5058977;28;20048;-73
2022/08/02 00:24:41;;;;;;;4.35;2.75;;;13.40;99.90;;;;;;5045960;28;20044;-73
2022/08/02 00:27:07;;;;;;;4.40;2.88;;;13.30;99.90;;;;;;5043908;28;20037;-73
2022/08/02 00:29:34;;;;;;;7.22;2.72;;;13.30;99.90;;;;;;5043071;28;20044;-72
2022/08/02 00:31:59;;;;;;;8.32;3.42;;;13.30;99.90;;;;;;5061813;28;20419;-73
2022/08/02 00:34:25;;;;;;;9.20;3.47;;;13.30;99.90;;;;;;5045526;28;20032;-72
2022/08/02 00:36:51;;;;;;;11.80;4.70;;;13.30;99.90;;;;;;5045300;28;20083;-72
2022/08/02 00:39:16;;;;;;;9.80;4.10;;;13.30;99.90;;;;;;5045455;28;20037;-73
2022/08/02 00:41:51;;;;;;;8.50;4.15;;;13.40;99.90;;;;;;5042467;28;20080;-72
2022/08/02 00:44:19;;;;;;;10.45;4.07;;;13.40;99.90;;;;;;5044555;28;20392;-72
2022/08/02 00:46:46;;;;;;;9.85;4.20;;;13.40;99.90;;;;;;5044470;28;20419;-72
2022/08/02 00:49:12;;;;;;;11.02;4.00;;;13.40;99.90;;;;;;5044330;28;20044;-73
2022/08/02 00:51:39;;;;;;;11.60;3.83;;;13.30;99.90;;;;;;5041335;28;20119;-72
2022/08/02 00:54:05;;;;;;;8.18;3.95;;;13.30;99.90;;;;;;5045061;28;20048;-73
2022/08/02 00:56:31;;;;;;;6.63;3.40;;;13.30;99.90;;;;;;5044638;28;20132;-73
2022/08/02 00:58:57;;;;;;;10.07;3.60;;;13.30;99.90;;;;;;5042471;28;20127;-72
2022/08/02 01:01:37;;;;;;;10.68;3.70;;;13.30;99.90;;;;;;5041769;28;20040;-72
2022/08/02 01:04:13;;;;;;;8.50;4.00;;;13.30;99.90;;;;;;5043690;28;20041;-72
2022/08/02 01:06:41;;;;;;;10.52;3.92;;;13.20;99.90;;;;;;5061058;28;20071;-72
2022/08/02 01:09:07;;;;;;;9.40;4.10;;;13.20;99.90;;;;;;5043669;28;20052;-72
2022/08/02 01:11:34;;;;;;;10.43;4.13;;;13.10;99.90;;;;;;5042221;28;20049;-73
2022/08/02 01:14:09;;;;;;;11.80;4.10;;;13.10;99.90;;;;;;5041661;28;20487;-72
2022/08/02 01:16:44;;;;;;;10.32;3.90;;;13.10;99.90;;;;;;5041623;28;20087;-73
2022/08/02 01:19:38;;;;;;;10.30;3.60;;;13.10;99.90;;;;;;5043722;28;20190;-72
2022/08/02 01:22:15;;;;;;;5.88;3.53;;;13.00;99.90;;;;;;5040819;28;20152;-72
2022/08/02 01:25:22;;;;;;;9.38;3.70;;;13.00;99.90;;;;;;5042556;28;20172;-72
2022/08/02 01:28:07;;;;;;;6.38;3.35;;;13.00;99.90;;;;;;5040545;28;20052;-72
2022/08/02 01:30:34;;;;;;;6.40;2.80;;;12.90;99.90;;;;;;5043012;28;20144;-72
2022/08/02 01:33:03;;;;;;;8.80;3.28;;;12.90;99.90;;;;;;5044035;28;20045;-73
2022/08/02 01:35:40;;;;;;;5.32;3.00;;;12.90;99.90;;;;;;5047251;28;20052;-72
2022/08/02 01:38:15;;;;;;;7.72;3.63;;;12.90;99.90;;;;;;5049788;28;20068;-72
2022/08/02 01:40:43;;;;;;;7.03;2.90;;;12.80;99.90;;;;;;5041814;28;20090;-72
2022/08/02 01:43:10;;;;;;;11.10;2.97;;;12.80;99.90;;;;;;5025607;28;20116;-72
2022/08/02 01:45:38;;;;;;;11.75;3.72;;;12.80;99.90;;;;;;5039528;28;20052;-72
2022/08/02 01:48:05;;;;;;;11.95;4.63;;;12.70;99.90;;;;;;5041354;28;20041;-72
2022/08/02 01:50:35;;;;;;;6.45;3.15;;;12.70;99.90;;;;;;5037973;28;20032;-73
2022/08/02 01:53:06;;;;;;;11.25;4.07;;;12.70;99.90;;;;;;5039725;28;20045;-72
2022/08/02 01:55:38;;;;;;;8.05;3.70;;;12.70;99.90;;;;;;5042396;28;20037;-72
2022/08/02 01:58:05;;;;;;;12.15;3.78;;;12.60;99.90;;;;;;5039018;28;20124;-72
2022/08/02 02:00:37;;;;;;;9.18;3.92;;;12.60;99.90;;;;;;5038093;28;20052;-73
2022/08/02 02:03:05;;;;;;;9.15;3.58;;;12.70;99.90;;;;;;5039478;28;20068;-72
2022/08/02 02:05:32;;;;;;;10.45;4.00;;;12.60;99.90;;;;;;5038061;28;20041;-71
2022/08/02 02:08:00;;;;;;;9.65;4.15;;;12.60;99.90;;;;;;5036647;28;20056;-72
2022/08/02 02:10:31;;;;;;;10.35;3.85;;;12.60;99.90;;;;;;5034513;28;21810;-72
2022/08/02 02:13:01;;;;;;;9.02;3.70;;;12.60;99.90;;;;;;5039565;28;20041;-73
2022/08/02 02:15:29;;;;;;;11.80;4.20;;;12.60;99.90;;;;;;5053696;28;20056;-72
2022/08/02 02:17:57;;;;;;;10.57;4.10;;;12.60;99.90;;;;;;5040401;28;20136;-72
2022/08/02 02:20:23;;;;;;;9.30;3.88;;;12.70;99.90;;;;;;5041775;28;20095;-72
2022/08/02 02:22:49;;;;;;;9.23;4.10;;;12.60;99.90;;;;;;5039532;28;20491;-72
2022/08/02 02:25:16;;;;;;;9.52;4.05;;;12.60;99.90;;;;;;5041182;28;20040;-71
2022/08/02 02:27:50;;;;;;;11.52;4.07;;;12.60;99.90;;;;;;5023921;28;20037;-72
2022/08/02 02:30:16;;;;;;;11.35;4.10;;;12.60;99.90;;;;;;5041348;28;20047;-72
2022/08/02 02:32:44;;;;;;;9.43;4.57;;;12.60;99.90;;;;;;5041438;28;20041;-71
2022/08/02 02:35:11;;;;;;;10.45;4.30;;;12.60;99.90;;;;;;5025550;28;20132;-72
2022/08/02 02:37:39;;;;;;;8.40;4.18;;;12.60;99.90;;;;;;5043814;28;20044;-73
2022/08/02 02:40:07;;;;;;;11.90;4.20;;;12.60;99.90;;;;;;5022598;28;20095;-73
2022/08/02 02:42:34;;;;;;;14.15;4.38;;;12.50;99.90;;;;;;5038385;28;20669;-74
2022/08/02 02:45:03;;;;;;;9.57;4.05;;;12.60;99.90;;;;;;5023618;28;20132;-72
2022/08/02 02:47:30;;;;;;;10.57;4.43;;;12.60;99.90;;;;;;5040205;28;20098;-72
2022/08/02 02:49:57;;;;;;;11.38;4.47;;;12.60;99.90;;;;;;5038642;28;20525;-72
2022/08/02 02:52:23;;;;;;;6.90;4.22;;;12.50;99.90;;;;;;5021250;28;20381;-72
2022/08/02 02:54:50;;;;;;;13.82;4.43;;;12.50;99.90;;;;;;5039282;28;20041;-73
2022/08/02 02:57:17;;;;;;;12.60;4.82;;;12.50;99.90;;;;;;5041439;28;20049;-73
2022/08/02 02:59:43;;;;;;;8.93;4.05;;;12.60;99.90;;;;;;5039843;28;20125;-73
2022/08/02 03:02:10;;;;;;;10.30;4.47;;;12.50;99.90;;;;;;5040743;28;20043;-73
2022/08/02 03:04:36;;;;;;;10.93;4.35;;;12.50;99.90;;;;;;5042248;28;20037;-73
2022/08/02 03:07:02;;;;;;;8.27;4.32;;;12.50;99.90;;;;;;5041516;28;20044;-73
2022/08/02 03:09:28;;;;;;;11.23;4.15;;;12.50;99.90;;;;;;5040406;28;20041;-73
2022/08/02 03:11:54;;;;;;;10.27;4.90;;;12.50;99.90;;;;;;5042623;28;20037;-73
2022/08/02 03:14:20;;;;;;;11.10;4.63;;;12.40;99.90;;;;;;5042236;28;20503;-73
2022/08/02 03:16:51;;;;;;;10.57;4.65;;;12.40;99.90;;;;;;5039806;28;20044;-73
2022/08/02 03:19:19;;;;;;;9.57;4.63;;;12.50;99.90;;;;;;5040265;28;20634;-73
2022/08/02 03:21:47;;;;;;;11.38;5.43;;;12.50;99.90;;;;;;5040718;28;20029;-73
2022/08/02 03:24:13;;;;;;;11.43;5.22;;;12.40;99.90;;;;;;5040109;28;20242;-73
2022/08/02 03:26:39;;;;;;;11.27;5.07;;;12.50;99.90;;;;;;5042567;28;20087;-73
2022/08/02 03:29:06;;;;;;;7.85;4.88;;;12.40;99.90;;;;;;5040298;28;20045;-73
2022/08/02 03:31:32;;;;;;;15.30;5.57;;;12.40;99.90;;;;;;5041253;28;20039;-73
2022/08/02 03:33:59;;;;;;;13.43;5.80;;;12.50;99.90;;;;;;5041734;28;20049;-73
2022/08/02 03:36:29;;;;;;;10.32;5.20;;;12.50;99.90;;;;;;5039698;28;20064;-73
2022/08/02 03:38:56;;;;;;;10.13;5.47;;;12.50;99.90;;;;;;5033505;28;20132;-73
2022/08/02 03:41:22;;;;;;;13.13;6.25;;;12.50;99.90;;;;;;5038911;28;20033;-73
2022/08/02 03:43:49;;;;;;;14.63;5.80;;;12.50;99.90;;;;;;5006125;28;20158;-73
2022/08/02 03:46:18;;;;;;;10.40;5.50;;;12.40;99.90;;;;;;5042909;28;20438;-73
2022/08/02 03:48:45;;;;;;;13.48;6.15;;;12.50;99.90;;;;;;5040293;28;20036;-74
2022/08/02 03:51:11;;;;;;;10.27;5.35;;;12.40;99.90;;;;;;5042407;28;20376;-73
2022/08/02 03:53:37;;;;;;;10.38;5.72;;;12.50;99.90;;;;;;5044278;28;20068;-73
2022/08/02 03:56:05;;;;;;;9.68;6.03;;;12.50;99.90;;;;;;5045115;28;20510;-73
2022/08/02 03:58:31;;;;;;;9.73;5.88;;;12.50;99.90;;;;;;5045122;28;20049;-74
2022/08/02 04:00:58;;;;;;;11.32;6.07;;;12.50;99.90;;;;;;5061415;28;20158;-73
2022/08/02 04:03:25;;;;;;;10.70;6.32;;;12.60;99.90;;;;;;5044085;28;20041;-74
2022/08/02 04:05:51;;;;;;;12.77;6.40;;;12.60;99.90;;;;;;5028612;28;20508;-73
2022/08/02 04:08:17;;;;;;;12.43;5.90;;;12.60;99.90;;;;;;5044263;28;20760;-74
2022/08/02 04:13:31;;;;;;;9.50;5.90;;;12.60;99.90;;;;;;5046819;28;20536;-72
2022/08/02 04:16:01;;;;;;;10.60;6.15;;;12.60;99.90;;;;;;5043701;28;20542;-73
2022/08/02 04:18:33;;;;;;;12.15;6.00;;;12.70;99.90;;;;;;5041378;28;20553;-73
2022/08/02 04:21:01;;;;;;;11.73;6.60;;;12.60;99.90;;;;;;5042837;28;20403;-73
2022/08/02 04:23:29;;;;;;;16.95;6.68;;;12.60;99.90;;;;;;5041096;28;20672;-73
2022/08/02 04:25:56;;;;;;;10.95;6.43;;;12.70;99.90;;;;;;5041696;28;20546;-73
2022/08/02 04:28:23;;;;;;;14.90;7.18;;;12.70;99.90;;;;;;5026026;28;20037;-73
2022/08/02 04:30:50;;;;;;;8.55;6.38;;;12.70;99.90;;;;;;5043561;28;20047;-73
2022/08/02 04:33:16;;;;;;;11.88;7.03;;;12.70;99.90;;;;;;5044140;28;20494;-73
2022/08/02 04:35:43;;;;;;;8.27;6.65;;;12.70;99.90;;;;;;5042584;28;20033;-73
2022/08/02 04:38:09;;;;;;;12.25;6.78;;;12.80;99.90;;;;;;5043963;28;20394;-73
2022/08/02 04:40:35;;;;;;;14.02;6.95;;;12.80;99.90;;;;;;5043205;28;20040;-73
2022/08/02 04:43:01;;;;;;;15.77;7.93;;;12.80;99.90;;;;;;5044709;28;20045;-73
2022/08/02 04:45:29;;;;;;;16.17;7.80;;;12.80;99.90;;;;;;5043381;28;20041;-73
2022/08/02 04:47:54;;;;;;;10.77;7.20;;;12.80;99.90;;;;;;5041900;28;20045;-73
2022/08/02 04:50:20;;;;;;;12.57;6.30;;;12.80;99.90;;;;;;5043309;28;20552;-74
2022/08/02 04:52:46;;;;;;;12.00;6.88;;;12.90;99.90;;;;;;5042530;28;20545;-73
2022/08/02 04:55:11;;;;;;;14.07;7.32;;;12.90;99.90;;;;;;5043136;28;20067;-73
2022/08/02 04:57:56;;;;;;;11.48;6.93;;;12.80;99.90;;;;;;5027933;28;20037;-73
2022/08/02 05:00:22;;;;;;;12.48;6.88;;;12.90;99.90;;;;;;5041964;28;20059;-73
2022/08/02 05:02:49;;;;;;;14.57;6.78;;;12.90;99.90;;;;;;5041815;28;20045;-73
2022/08/02 05:05:15;;;;;;;16.17;6.57;;;13.00;99.90;;;;;;5043768;28;20029;-73
2022/08/02 05:07:40;;;;;;;10.90;6.15;;;13.00;99.90;;;;;;5041122;28;20069;-73
2022/08/02 05:10:07;;;;;;;14.68;6.35;;;13.10;99.90;;;;;;5042931;28;20126;-73
2022/08/02 05:12:32;;;;;;;11.43;6.93;;;13.10;99.90;;;;;;5042218;28;20041;-72
2022/08/02 05:14:58;;;;;;;11.93;6.85;;;13.10;99.90;;;;;;5039489;28;20977;-73
2022/08/02 05:17:23;;;;;;;17.35;7.25;;;13.20;99.90;;;;;;5041405;28;20040;-73
2022/08/02 05:19:49;;;;;;;15.13;7.20;;;13.20;99.90;;;;;;5025993;28;20480;-72
2022/08/02 05:22:15;;;;;;;13.25;7.32;;;13.30;99.90;;;;;;5039363;28;22131;-72
2022/08/02 05:24:40;;;;;;;17.85;7.95;;;13.30;99.90;;;;;;5025107;28;20106;-73
2022/08/02 05:27:06;;;;;;;13.90;7.82;;;13.40;99.90;;;;;;5037749;28;20492;-73
2022/08/02 05:29:32;;;;;;;13.73;7.22;;;13.40;99.90;;;;;;5040283;28;21292;-73
2022/08/02 05:31:57;;;;;;;12.48;7.82;;;13.50;99.90;;;;;;5043742;28;20051;-73
2022/08/02 05:34:23;;;;;;;12.10;7.30;;;13.50;99.90;;;;;;5041224;28;20518;-73
2022/08/02 05:36:49;;;;;;;15.98;7.53;;;13.50;99.90;;;;;;5041901;28;20086;-73
2022/08/02 05:39:14;;;;;;;17.10;7.82;;;13.50;99.90;;;;;;5040156;28;20392;-73
2022/08/02 05:41:40;;;;;;;15.60;7.22;;;13.50;99.90;;;;;;5044527;28;20048;-73
2022/08/02 05:44:06;;;;;;;16.45;7.32;;;13.60;99.90;;;;;;5042464;28;20873;-73
2022/08/02 05:46:31;;;;;;;17.55;7.50;;;13.70;99.90;;;;;;5044377;28;20048;-72
2022/08/02 05:48:57;;;;;;;15.30;7.45;;;13.70;99.90;;;;;;5044425;28;20041;-72
2022/08/02 05:51:47;;;;;;;18.10;7.13;;;13.80;99.90;;;;;;5042547;28;20045;-72
2022/08/02 05:54:30;;;;;;;12.93;6.72;;;13.90;99.90;;;;;;5041972;28;20052;-72
2022/08/02 05:57:05;;;;;;;16.05;7.15;;;14.00;99.90;;;;;;5043784;28;20126;-73
2022/08/02 05:59:34;;;;;;;12.65;6.78;;;14.00;99.90;;;;;;5043214;28;20057;-73
2022/08/02 06:02:21;;;;;;;13.07;7.68;;;14.10;99.90;;;;;;5040013;28;20048;-73
2022/08/02 06:04:58;;;;;;;11.55;7.15;;;14.20;99.90;;;;;;5042337;28;20041;-73
2022/08/02 06:07:24;;;;;;;11.38;7.32;;;14.30;99.90;;;;;;5042895;28;20033;-72
2022/08/02 06:09:50;;;;;;;14.07;7.25;;;14.40;99.90;;;;;;5043277;28;20123;-72
2022/08/02 06:12:17;;;;;;;16.40;7.13;;;14.50;99.90;;;;;;5026486;28;20037;-72
2022/08/02 06:14:44;;;;;;;15.80;7.05;;;14.60;99.90;;;;;;5042842;28;20128;-73
2022/08/02 06:17:12;;;;;;;12.77;6.65;;;14.70;99.90;;;;;;5041485;28;20076;-73
2022/08/02 06:19:40;;;;;;;16.23;7.00;;;14.80;99.90;;;;;;5043562;28;20069;-72
2022/08/02 06:22:16;;;;;;;12.38;6.88;;;14.90;99.90;;;;;;5044272;28;20633;-74
2022/08/02 06:24:44;;;;;;;12.98;6.68;;;15.00;99.90;;;;;;5041705;28;20510;-74
2022/08/02 06:27:12;;;;;;;11.93;7.07;;;15.10;99.90;;;;;;5041796;28;20051;-74
2022/08/02 06:29:41;;;;;;;13.27;6.47;;;15.30;99.90;;;;;;5039137;28;20052;-74
2022/08/02 06:32:07;;;;;;;11.60;5.82;;;15.40;99.90;;;;;;5043226;28;20040;-74
2022/08/02 06:34:37;;;;;;;10.95;6.05;;;15.50;99.90;;;;;;5042946;28;20184;-75
2022/08/02 06:37:26;;;;;;;8.43;5.53;;;15.70;99.90;;;;;;5050222;28;20045;-73
2022/08/02 06:40:00;;;;;;;12.32;5.53;;;15.80;99.90;;;;;;5046053;28;20041;-74
2022/08/02 06:42:36;;;;;;;11.27;6.10;;;16.00;99.90;;;;;;5044986;28;20044;-75
2022/08/02 06:45:02;;;;;;;12.80;5.80;;;16.10;99.90;;;;;;5042541;28;20060;-74
2022/08/02 06:47:28;;;;;;;10.80;5.00;;;16.30;99.90;;;;;;5041300;28;20044;-73
2022/08/02 06:49:55;;;;;;;12.23;5.10;;;16.40;99.90;;;;;;5040199;28;20033;-73
2022/08/02 06:52:25;;;;;;;9.80;5.07;;;16.50;99.90;;;;;;5038384;28;20037;-73
2022/08/02 06:54:51;;;;;;;15.55;5.32;;;16.60;99.90;;;;;;5041568;28;20056;-72
2022/08/02 06:57:16;;;;;;;10.98;4.88;;;16.60;99.90;;;;;;5040637;28;20045;-73
2022/08/02 06:59:42;;;;;;;14.93;5.13;;;16.70;99.90;;;;;;5036279;28;20033;-73
2022/08/02 07:02:10;;;;;;;12.88;5.07;;;16.80;99.90;;;;;;5041485;28;20136;-73
2022/08/02 07:04:36;;;;;;;11.40;4.63;;;16.90;99.90;;;;;;5041635;28;20492;-73
2022/08/02 07:07:02;;;;;;;10.20;4.13;;;17.00;99.90;;;;;;5041332;28;20048;-73
2022/08/02 07:09:27;;;;;;;9.02;4.30;;;17.10;99.90;;;;;;5036481;28;20491;-73
2022/08/02 07:11:53;;;;;;;10.73;4.13;;;17.30;99.90;;;;;;5039874;28;20056;-74
2022/08/02 07:14:19;;;;;;;10.68;4.32;;;17.40;99.90;;;;;;5042884;28;20047;-73
2022/08/02 07:16:45;;;;;;;10.32;3.90;;;17.50;99.90;;;;;;5027453;28;20079;-73
2022/08/02 07:19:10;;;;;;;9.90;3.92;;;17.70;99.90;;;;;;5039190;28;20041;-73
2022/08/02 07:21:36;;;;;;;8.20;3.40;;;17.90;99.90;;;;;;5039477;28;20033;-73
2022/08/02 07:24:02;;;;;;;9.65;3.17;;;18.00;99.90;;;;;;5037854;28;20052;-73
2022/08/02 07:26:27;;;;;;;8.85;3.63;;;18.10;99.90;;;;;;5040218;28;20048;-73
2022/08/02 07:28:53;;;;;;;8.98;3.10;;;18.20;99.90;;;;;;5043682;28;20052;-73
2022/08/02 07:31:20;;;;;;;6.13;3.10;;;18.20;99.90;;;;;;5048506;28;20040;-73
2022/08/02 07:33:45;;;;;;;9.80;3.30;;;18.20;99.90;;;;;;5046910;28;20044;-73
2022/08/02 07:36:11;;;;;;;9.70;3.15;;;18.20;99.90;;;;;;5040249;28;20041;-73
2022/08/02 07:38:36;;;;;;;9.18;3.53;;;18.30;99.90;;;;;;5047556;28;20045;-73
2022/08/02 07:41:02;;;;;;;8.23;3.20;;;18.40;99.90;;;;;;5042878;28;20100;-73
2022/08/02 07:43:28;;;;;;;10.35;3.08;;;18.50;99.90;;;;;;5045562;28;20033;-73
2022/08/02 07:45:53;;;;;;;4.93;2.53;;;18.60;99.90;;;;;;5044633;28;20033;-74
2022/08/02 07:48:19;;;;;;;7.38;3.00;;;18.70;99.90;;;;;;5047999;28;20044;-74
2022/08/02 07:50:45;;;;;;;8.25;3.00;;;18.80;99.90;;;;;;5047579;28;20044;-74
2022/08/02 07:53:11;;;;;;;6.72;2.75;;;19.00;99.90;;;;;;5056011;28;20068;-74
2022/08/02 07:55:36;;;;;;;10.70;2.75;;;19.10;99.90;;;;;;5046216;28;20045;-74
2022/08/02 07:58:03;;;;;;;6.25;3.10;;;19.30;99.90;;;;;;5044436;28;20045;-74
2022/08/02 08:00:29;;;;;;;6.85;2.90;;;19.40;99.90;;;;;;5039260;28;20525;-74
2022/08/02 08:02:55;;;;;;;8.93;2.65;;;19.60;99.90;;;;;;5039666;28;20092;-74
2022/08/02 08:05:20;;;;;;;6.97;3.20;;;19.80;99.90;;;;;;5049753;28;20045;-74
2022/08/02 08:07:46;;;;;;;9.32;2.85;;;19.90;99.90;;;;;;5046221;28;20029;-74
2022/08/02 08:10:12;;;;;;;8.20;2.42;;;20.00;99.90;;;;;;5042648;28;20045;-74
2022/08/02 08:12:37;;;;;;;5.65;2.30;;;20.10;99.90;;;;;;5063296;28;20174;-74
2022/08/02 08:15:04;;;;;;;7.78;2.97;;;20.30;99.90;;;;;;5045285;28;20084;-74
2022/08/02 08:17:30;;;;;;;8.38;2.95;;;20.40;99.90;;;;;;5046295;28;20047;-74
2022/08/02 08:19:56;;;;;;;5.47;2.50;;;20.50;99.90;;;;;;5046142;28;20045;-73
2022/08/02 08:22:22;;;;;;;8.00;2.63;;;20.60;99.90;;;;;;5043935;28;20079;-73
2022/08/02 08:24:49;;;;;;;6.45;2.33;;;20.70;99.90;;;;;;5047083;28;20041;-73
2022/08/02 08:27:15;;;;;;;6.95;2.47;;;20.90;99.90;;;;;;5040468;28;20042;-73
2022/08/02 08:29:41;;;;;;;5.82;2.40;;;21.00;99.90;;;;;;5045283;28;20052;-73
2022/08/02 08:32:07;;;;;;;6.25;2.22;;;21.10;99.90;;;;;;5046850;28;20041;-73
2022/08/02 08:34:34;;;;;;;5.90;2.10;;;21.30;99.90;;;;;;5045355;28;20049;-73
2022/08/02 08:37:01;;;;;;;6.97;2.15;;;21.40;99.90;;;;;;5048435;28;20045;-74
2022/08/02 08:39:27;;;;;;;4.88;2.10;;;21.50;99.90;;;;;;5046049;28;20044;-73
2022/08/02 08:41:53;;;;;;;5.35;2.10;;;21.50;99.90;;;;;;5044042;28;20037;-73
2022/08/02 08:44:18;;;;;;;3.42;1.60;;;21.60;99.90;;;;;;5045724;28;20065;-73
2022/08/02 08:46:47;;;;;;;8.02;1.80;;;21.60;99.90;;;;;;5044273;28;20033;-73
2022/08/02 08:49:38;;;;;;;6.25;1.90;;;21.70;99.90;;;;;;5039425;28;20041;-74
2022/08/02 08:52:05;;;;;;;3.28;1.73;;;21.90;99.90;;;;;;5044923;28;20040;-73
2022/08/02 08:54:32;;;;;;;5.90;1.67;;;22.00;99.90;;;;;;5045981;28;20037;-73
2022/08/02 08:56:58;;;;;;;3.53;1.70;;;22.10;99.90;;;;;;5040693;28;20041;-73
2022/08/02 08:59:24;;;;;;;6.93;1.90;;;22.20;99.90;;;;;;5037927;28;20507;-73
2022/08/02 09:01:51;;;;;;;5.88;1.70;;;22.20;99.90;;;;;;5040497;28;20034;-73
2022/08/02 09:04:18;;;;;;;3.38;1.75;;;22.40;99.90;;;;;;5041032;28;20047;-73
2022/08/02 09:06:44;;;;;;;8.98;2.15;;;22.50;99.90;;;;;;5042389;28;20120;-73
2022/08/02 09:09:09;;;;;;;5.13;2.15;;;22.60;99.90;;;;;;5040055;28;20124;-73
2022/08/02 09:11:35;;;;;;;3.97;2.00;;;22.70;99.90;;;;;;5040249;28;20095;-73
2022/08/02 09:14:03;;;;;;;4.70;1.73;;;22.90;99.90;;;;;;5015132;28;20045;-73
2022/08/02 09:16:41;;;;;;;5.05;1.65;;;23.00;99.90;;;;;;5049799;28;20041;-73
2022/08/02 09:19:24;;;;;;;5.00;1.92;;;23.20;99.90;;;;;;5047229;28;20040;-73
2022/08/02 09:22:02;;;;;;;5.95;1.50;;;23.40;99.90;;;;;;5027317;28;20044;-73
2022/08/02 09:24:28;;;;;;;4.50;1.58;;;23.50;99.90;;;;;;5044832;28;20083;-73
2022/08/02 09:26:54;;;;;;;4.20;1.90;;;23.70;99.90;;;;;;5043944;28;20029;-73
2022/08/02 09:29:23;;;;;;;4.47;1.90;;;23.80;99.90;;;;;;5046699;28;20387;-73
2022/08/02 09:31:49;;;;;;;6.80;1.80;;;24.00;99.90;;;;;;5043936;28;20051;-73
2022/08/02 09:34:15;;;;;;;5.70;1.73;;;24.20;99.90;;;;;;5046539;28;20127;-73
2022/08/02 09:36:42;;;;;;;4.90;1.85;;;24.30;99.90;;;;;;5042490;28;20094;-73
2022/08/02 09:39:14;;;;;;;5.15;2.05;;;24.50;99.90;;;;;;5043061;28;20140;-73
2022/08/02 09:41:42;;;;;;;6.67;2.23;;;24.70;99.90;;;;;;5040217;28;20037;-73
2022/08/02 09:44:12;;;;;;;5.22;2.08;;;24.80;99.90;;;;;;5045915;28;20037;-73
2022/08/02 09:46:43;;;;;;;5.00;2.30;;;25.00;99.90;;;;;;5042917;28;20083;-74
2022/08/02 09:49:18;;;;;;;7.03;2.30;;;25.00;99.40;;;;;;5043297;28;20055;-74
2022/08/02 09:51:45;;;;;;;7.30;2.35;;;25.10;99.90;;;;;;5030789;28;20499;-74
2022/08/02 09:54:35;;;;;;;6.43;2.63;;;25.30;99.90;;;;;;5049310;28;20056;-75
2022/08/02 09:57:01;;;;;;;4.47;2.25;;;25.40;99.90;;;;;;5043181;28;20051;-75
2022/08/02 09:59:27;;;;;;;4.57;2.35;;;25.60;99.90;;;;;;5027446;28;20041;-75
2022/08/02 10:01:55;;;;;;;4.90;2.83;;;25.60;99.90;;;;;;5044431;28;20044;-74
2022/08/02 10:04:23;;;;;;;6.65;2.30;;;25.70;99.90;;;;;;5058609;28;20060;-74
2022/08/02 10:06:50;;;;;;;6.85;3.00;;;25.60;99.90;;;;;;5044048;28;20033;-74
2022/08/02 10:09:16;;;;;;;5.65;2.50;;;25.60;99.90;;;;;;5045681;28;20098;-74
2022/08/02 10:11:43;;;;;;;7.40;2.80;;;25.60;99.90;;;;;;5062573;28;20063;-74
2022/08/02 10:14:09;;;;;;;6.70;3.03;;;25.70;99.90;;;;;;5046566;28;20065;-75
2022/08/02 10:16:40;;;;;;;7.05;2.90;;;25.60;99.90;;;;;;5034086;28;20029;-75
2022/08/02 10:19:06;;;;;;;7.15;3.08;;;25.60;99.90;;;;;;5038761;28;20076;-74
2022/08/02 10:21:35;;;;;;;5.22;2.47;;;25.60;99.90;;;;;;5045163;28;20044;-75
2022/08/02 10:24:05;;;;;;;8.57;2.72;;;25.70;99.90;;;;;;5044835;28;20037;-75
2022/08/02 10:26:31;;;;;;;4.43;2.55;;;25.80;99.90;;;;;;5040286;28;21052;-75
2022/08/02 10:28:57;;;;;;;6.45;2.70;;;25.90;99.90;;;;;;5027182;28;20041;-76
2022/08/02 10:31:26;;;;;;;10.50;3.03;;;26.00;99.90;;;;;;5046020;28;20530;-75
2022/08/02 10:33:54;;;;;;;4.07;2.58;;;26.20;99.90;;;;;;5044896;28;20487;-74
2022/08/02 10:36:22;;;;;;;6.60;2.83;;;26.30;99.90;;;;;;5043179;28;20041;-74
2022/08/02 10:38:48;;;;;;;3.97;2.30;;;26.50;99.90;;;;;;5036357;28;20049;-74
2022/08/02 10:41:14;;;;;;;6.45;2.90;;;26.60;99.90;;;;;;5037300;28;20127;-75
2022/08/02 10:43:42;;;;;;;8.40;3.00;;;26.70;99.90;;;;;;5041268;28;20132;-75
2022/08/02 10:46:28;;;;;;;4.97;2.88;;;26.80;99.80;;;;;;5043813;28;20562;-75
2022/08/02 10:49:11;;;;;;;5.90;2.92;;;27.00;99.90;;;;;;5042633;28;20115;-75
2022/08/02 10:52:01;;;;;;;8.15;2.78;;;27.10;99.10;;;;;;5041786;28;20045;-75
2022/08/02 10:54:37;;;;;;;4.85;2.10;;;27.30;97.30;;;;;;5015004;28;20628;-74
2022/08/02 10:57:21;;;;;;;6.72;2.72;;;27.40;97.20;;;;;;5032291;28;20033;-74
2022/08/02 10:59:49;;;;;;;4.13;2.30;;;27.40;95.00;;;;;;5044099;28;20071;-74
2022/08/02 11:02:37;;;;;;;3.58;2.20;;;27.40;96.70;;;;;;5046632;28;20069;-74
2022/08/02 11:05:11;;;;;;;4.57;2.30;;;27.50;95.90;;;;;;5063978;28;20045;-74
2022/08/02 11:07:55;;;;;;;4.05;2.22;;;27.40;95.00;;;;;;5092842;22;20139;-75
2022/08/02 11:10:37;;;;;;;6.68;2.80;;;27.50;95.90;;;;;;5076052;28;20067;-74
2022/08/02 11:13:15;;;;;;;6.28;2.67;;;27.60;94.90;;;;;;5091097;28;20119;-74
2022/08/02 11:16:00;;;;;;;6.63;2.25;;;27.70;94.20;;;;;;5089852;28;20110;-74
2022/08/02 11:18:50;;;;;;;7.72;2.88;;;27.60;94.70;;;;;;5066369;28;20040;-74
2022/08/02 11:21:24;;;;;;;3.60;2.13;;;27.70;94.60;;;;;;5082958;28;20056;-74
2022/08/02 11:23:51;;;;;;;3.08;2.03;;;27.60;91.80;;;;;;5068228;28;20052;-74
2022/08/02 11:26:29;;;;;;;3.97;2.10;;;27.80;95.30;;;;;;5049865;28;20082;-74
2022/08/02 11:28:59;;;;;;;4.90;2.35;;;27.80;94.50;;;;;;5068337;28;20457;-74
2022/08/02 11:31:31;;;;;;;6.00;2.15;;;27.90;93.80;;;;;;5071271;28;20040;-74
2022/08/02 11:33:57;;;;;;;4.55;2.00;;;27.60;93.70;;;;;;5069600;28;20032;-74
2022/08/02 11:36:23;;;;;;;2.95;1.80;;;27.70;92.60;;;;;;5070206;28;21109;-74
2022/08/02 11:38:49;;;;;;;2.08;1.35;;;27.70;93.70;;;;;;5072419;28;20056;-74
2022/08/02 11:41:22;;;;;;;4.68;1.67;;;27.70;90.20;;;;;;5088403;28;20048;-74
2022/08/02 11:43:54;;;;;;;3.40;1.50;;;27.60;91.50;;;;;;5071698;28;20056;-74
2022/08/02 11:46:20;;;;;;;3.67;1.63;;;27.60;91.50;;;;;;5055379;28;20052;-74
2022/08/02 11:48:46;;;;;;;3.40;1.42;;;27.40;87.20;;;;;;5074878;28;20036;-74
2022/08/02 11:51:14;;;;;;;1.45;1.25;;;27.20;87.50;;;;;;5077111;28;20051;-74
2022/08/02 11:53:50;;;;;;;2.83;1.35;;;27.40;91.20;;;;;;5072541;28;20044;-74
2022/08/02 11:56:28;;;;;;;3.35;1.60;;;27.70;93.80;;;;;;5058244;28;20052;-74
2022/08/02 11:59:07;;;;;;;3.53;1.60;;;27.80;92.50;;;;;;5075400;28;20050;-74
2022/08/02 12:01:35;;;;;;;3.40;1.60;;;27.70;91.50;;;;;;5059750;28;20449;-74
2022/08/02 12:04:03;;;;;;;3.85;1.60;;;27.90;92.10;;;;;;5075218;28;20036;-74
2022/08/02 12:06:30;;;;;;;3.22;1.70;;;27.90;91.60;;;;;;5074911;28;20033;-74
2022/08/02 12:09:06;;;;;;;8.43;2.10;;;28.00;94.10;;;;;;5068685;28;20060;-74
2022/08/02 12:11:33;;;;;;;5.45;2.10;;;28.00;93.90;;;;;;5064066;28;20044;-74
2022/08/02 12:13:59;;;;;;;4.50;2.08;;;28.10;93.00;;;;;;5056792;28;20075;-74
2022/08/02 12:19:18;;;;;;;5.13;2.95;;;27.60;91.20;;;;;;5060359;28;20102;-74
2022/08/02 12:21:47;;;;;;;3.60;2.30;;;27.70;93.70;;;;;;5070452;28;20036;-74
2022/08/02 12:24:25;;;;;;;4.07;2.83;;;27.80;94.20;;;;;;5066776;28;20033;-74
2022/08/02 12:26:51;;;;;;;4.45;2.72;;;27.80;93.20;;;;;;5065734;28;20446;-74
2022/08/02 12:29:16;;;;;;;5.78;3.28;;;27.80;91.40;;;;;;5071209;28;20059;-74
2022/08/02 12:31:46;;;;;;;4.63;2.60;;;27.90;93.10;;;;;;5072474;28;20546;-74
2022/08/02 12:34:16;;;;;;;6.07;1.95;;;27.80;94.50;;;;;;5070728;28;20384;-74
2022/08/02 12:37:01;;;;;;;5.18;2.20;;;27.80;92.10;;;;;;5066185;28;20037;-74
2022/08/02 12:39:36;;;;;;;7.63;2.67;;;27.70;91.80;;;;;;5072249;28;20036;-74
2022/08/02 12:42:04;;;;;;;4.35;2.50;;;27.60;92.10;;;;;;5084343;28;20036;-74
2022/08/02 12:44:30;;;;;;;4.45;2.38;;;27.20;93.30;;;;;;5066806;28;20043;-74
2022/08/02 12:47:01;;;;;;;5.63;2.03;;;27.00;93.50;;;;;;5064337;28;20048;-74
2022/08/02 12:49:27;;;;;;;7.43;1.95;;;26.90;93.30;;;;;;5067311;28;20136;-74
2022/08/02 12:51:53;;;;;;;7.00;1.95;;;26.70;94.30;;;;;;5069431;28;20352;-74
2022/08/02 12:54:24;;;;;;;1.98;1.70;;;26.40;96.10;;;;;;5058611;28;20131;-74
2022/08/02 12:56:51;;;;;;;2.28;1.92;;;26.40;94.40;;;;;;5061040;28;20041;-74